createdAt,value
2023-03-16T00:02:19.746Z,100.00
2023-03-16T00:04:49.233Z,100.00
2023-03-16T00:07:17.623Z,100.00
2023-03-16T00:09:47.311Z,100.00
2023-03-16T00:12:17.646Z,100.00
2023-03-16T00:14:48.144Z,100.00
2023-03-16T00:17:20.071Z,100.00
2023-03-16T00:19:51.571Z,100.00
2023-03-16T00:22:20.064Z,100.00
2023-03-16T00:24:49.873Z,100.00
2023-03-16T00:27:18.552Z,100.00
2023-03-16T00:29:49.054Z,100.00
2023-03-16T00:32:19.380Z,100.00
2023-03-16T00:34:48.617Z,100.00
2023-03-16T00:37:19.342Z,100.00
2023-03-16T00:39:49.088Z,100.00
2023-03-16T00:42:18.939Z,100.00
2023-03-16T00:44:48.050Z,100.00
2023-03-16T00:47:16.437Z,100.00
2023-03-16T00:49:45.494Z,100.00
2023-03-16T00:52:15.012Z,100.00
2023-03-16T00:54:44.584Z,100.00
2023-03-16T00:57:16.424Z,100.00
2023-03-16T00:59:44.798Z,100.00
2023-03-16T01:02:13.993Z,100.00
2023-03-16T01:04:44.320Z,100.00
2023-03-16T01:07:15.036Z,100.00
2023-03-16T01:09:43.859Z,100.00
2023-03-16T01:12:16.844Z,100.00
2023-03-16T01:14:46.964Z,100.00
2023-03-16T01:17:17.187Z,100.00
2023-03-16T01:19:46.226Z,100.00
2023-03-16T01:22:16.084Z,98.98
2023-03-16T01:24:46.650Z,98.79
2023-03-16T01:27:16.553Z,98.25
2023-03-16T01:29:45.211Z,98.29
2023-03-16T01:32:14.302Z,97.09
2023-03-16T01:34:43.407Z,97.71
2023-03-16T01:37:13.871Z,96.93
2023-03-16T01:40:00.727Z,97.82
2023-03-16T01:42:30.500Z,96.91
2023-03-16T01:45:05.404Z,96.17
2023-03-16T01:47:38.332Z,95.07
2023-03-16T01:50:08.967Z,96.68
2023-03-16T01:52:40.980Z,97.77
2023-03-16T01:55:13.135Z,96.48
2023-03-16T01:57:45.963Z,96.40
2023-03-16T02:00:19.475Z,97.02
2023-03-16T02:03:16.342Z,97.95
2023-03-16T02:06:10.852Z,96.04
2023-03-16T02:08:45.214Z,96.66
2023-03-16T02:11:17.906Z,95.44
2023-03-16T02:14:04.164Z,96.65
2023-03-16T02:16:32.790Z,94.14
2023-03-16T02:19:01.271Z,95.14
2023-03-16T02:21:35.637Z,95.72
2023-03-16T02:24:06.495Z,95.07
2023-03-16T02:26:44.781Z,95.01
2023-03-16T02:29:27.760Z,94.98
2023-03-16T02:31:59.855Z,95.08
2023-03-16T02:34:29.777Z,96.80
2023-03-16T02:36:59.943Z,96.00
2023-03-16T02:39:29.459Z,96.49
2023-03-16T02:41:58.043Z,96.29
2023-03-16T02:44:29.993Z,96.21
2023-03-16T02:47:04.656Z,98.07
2023-03-16T02:49:37.430Z,97.73
2023-03-16T02:52:07.029Z,97.25
2023-03-16T02:54:35.645Z,98.02
2023-03-16T02:57:04.851Z,97.75
2023-03-16T02:59:34.296Z,97.65
2023-03-16T03:02:04.264Z,97.22
2023-03-16T03:04:32.951Z,97.81
2023-03-16T03:07:04.833Z,97.64
2023-03-16T03:09:38.887Z,98.88
2023-03-16T03:12:07.317Z,99.26
2023-03-16T03:14:38.682Z,98.23
2023-03-16T03:17:10.666Z,99.02
2023-03-16T03:19:39.033Z,98.85
2023-03-16T03:22:07.451Z,99.58
2023-03-16T03:24:36.411Z,99.89
2023-03-16T03:27:05.751Z,100.00
2023-03-16T03:29:36.013Z,99.76
2023-03-16T03:32:05.440Z,99.75
2023-03-16T03:34:35.199Z,99.19
2023-03-16T03:37:03.864Z,100.00
2023-03-16T03:39:32.659Z,99.61
2023-03-16T03:42:03.033Z,100.00
2023-03-16T03:44:34.489Z,99.58
2023-03-16T03:47:03.097Z,100.00
2023-03-16T03:49:32.617Z,99.36
2023-03-16T03:52:04.926Z,99.22
2023-03-16T03:54:33.330Z,99.56
2023-03-16T03:57:06.965Z,99.94
2023-03-16T03:59:42.342Z,98.66
2023-03-16T04:02:29.471Z,98.11
2023-03-16T04:04:58.466Z,96.99
2023-03-16T04:07:28.208Z,97.07
2023-03-16T04:10:02.143Z,96.00
2023-03-16T04:12:36.575Z,97.53
2023-03-16T04:15:06.023Z,98.49
2023-03-16T04:17:42.141Z,98.33
2023-03-16T04:20:16.028Z,97.72
2023-03-16T04:22:48.587Z,96.82
2023-03-16T04:25:19.244Z,96.78
2023-03-16T04:27:49.242Z,96.51
2023-03-16T04:30:18.988Z,97.57
2023-03-16T04:32:52.156Z,97.83
2023-03-16T04:35:22.090Z,99.55
2023-03-16T04:37:55.843Z,100.00
2023-03-16T04:40:30.712Z,99.52
2023-03-16T04:43:07.977Z,99.14
2023-03-16T04:45:37.269Z,98.50
2023-03-16T04:48:06.508Z,97.48
2023-03-16T04:50:35.494Z,96.68
2023-03-16T04:53:05.473Z,96.65
2023-03-16T04:55:34.411Z,97.73
2023-03-16T04:58:03.537Z,97.95
2023-03-16T05:00:35.968Z,97.56
2023-03-16T05:03:10.219Z,97.00
2023-03-16T05:05:39.175Z,97.53
2023-03-16T05:08:10.749Z,97.60
2023-03-16T05:10:41.092Z,98.91
2023-03-16T05:13:09.593Z,99.65
2023-03-16T05:15:39.257Z,98.22
2023-03-16T05:18:24.893Z,99.04
2023-03-16T05:20:55.793Z,99.58
2023-03-16T05:23:29.465Z,100.00
2023-03-16T05:26:02.796Z,99.61
2023-03-16T05:28:33.645Z,100.00
2023-03-16T05:31:05.735Z,100.00
2023-03-16T05:33:40.648Z,100.00
2023-03-16T05:36:13.019Z,100.00
2023-03-16T05:38:45.522Z,99.59
2023-03-16T05:41:21.485Z,99.58
2023-03-16T05:44:06.198Z,99.39
2023-03-16T05:46:54.097Z,100.00
2023-03-16T05:49:22.671Z,100.00
2023-03-16T05:51:51.591Z,100.00
2023-03-16T05:54:21.656Z,100.00
2023-03-16T05:56:50.000Z,100.00
2023-03-16T05:59:19.040Z,100.00
2023-03-16T06:01:53.054Z,100.00
2023-03-16T06:04:22.864Z,100.00
2023-03-16T06:06:51.294Z,100.00
2023-03-16T06:09:27.089Z,100.00
2023-03-16T06:11:57.098Z,100.00
2023-03-16T06:14:26.360Z,99.38
2023-03-16T06:16:56.669Z,99.42
2023-03-16T06:19:25.663Z,99.58
2023-03-16T06:21:59.426Z,99.99
2023-03-16T06:24:30.992Z,98.33
2023-03-16T06:26:59.435Z,98.93
2023-03-16T06:29:34.358Z,98.88
2023-03-16T06:32:04.230Z,98.70
2023-03-16T06:34:34.671Z,99.14
2023-03-16T06:37:04.982Z,97.76
2023-03-16T06:39:35.526Z,97.33
2023-03-16T06:42:05.338Z,97.38
2023-03-16T06:44:34.206Z,97.25
2023-03-16T06:47:10.348Z,96.42
2023-03-16T06:49:38.950Z,97.16
2023-03-16T06:52:15.628Z,96.50
2023-03-16T06:54:45.627Z,97.27
2023-03-16T06:57:14.989Z,96.26
2023-03-16T06:59:44.517Z,96.85
2023-03-16T07:02:14.891Z,97.34
2023-03-16T07:04:43.955Z,97.21
2023-03-16T07:07:13.075Z,96.05
2023-03-16T07:09:42.032Z,96.32
2023-03-16T07:12:13.695Z,96.85
2023-03-16T07:14:42.097Z,97.96
2023-03-16T07:17:13.362Z,96.97
2023-03-16T07:19:41.800Z,95.94
2023-03-16T07:22:10.662Z,96.26
2023-03-16T07:24:41.627Z,96.49
2023-03-16T07:27:12.354Z,94.78
2023-03-16T07:29:42.807Z,95.88
2023-03-16T07:32:11.450Z,94.54
2023-03-16T07:34:41.923Z,94.67
2023-03-16T07:37:10.377Z,94.33
2023-03-16T07:39:39.105Z,97.12
2023-03-16T07:42:12.535Z,95.70
2023-03-16T07:44:53.021Z,95.01
2023-03-16T07:47:23.299Z,96.13
2023-03-16T07:49:53.744Z,95.86
2023-03-16T07:52:22.461Z,95.50
2023-03-16T07:54:52.193Z,95.16
2023-03-16T07:57:20.982Z,93.54
2023-03-16T07:59:49.323Z,91.43
2023-03-16T08:02:21.898Z,91.09
2023-03-16T08:04:51.456Z,90.80
2023-03-16T08:07:19.871Z,89.10
2023-03-16T08:09:55.421Z,87.81
2023-03-16T08:12:30.139Z,86.46
2023-03-16T08:14:58.691Z,85.13
2023-03-16T08:17:31.573Z,85.15
2023-03-16T08:20:01.861Z,85.60
2023-03-16T08:22:30.929Z,86.37
2023-03-16T08:24:59.287Z,84.48
2023-03-16T08:27:29.464Z,84.93
2023-03-16T08:30:04.947Z,83.67
2023-03-16T08:32:36.477Z,83.75
2023-03-16T08:35:05.427Z,82.96
2023-03-16T08:37:34.575Z,82.43
2023-03-16T08:40:03.875Z,82.05
2023-03-16T08:42:32.497Z,82.28
2023-03-16T08:45:12.370Z,81.20
2023-03-16T08:47:44.820Z,80.35
2023-03-16T08:50:15.535Z,78.93
2023-03-16T08:52:44.170Z,78.32
2023-03-16T08:55:13.200Z,78.20
2023-03-16T08:57:41.660Z,76.12
2023-03-16T09:00:13.635Z,74.82
2023-03-16T09:02:44.513Z,74.98
2023-03-16T09:05:14.614Z,75.44
2023-03-16T09:07:43.587Z,74.77
2023-03-16T09:10:15.297Z,76.71
2023-03-16T09:12:44.470Z,73.79
2023-03-16T09:15:13.931Z,73.61
2023-03-16T09:17:45.033Z,72.81
2023-03-16T09:20:22.286Z,71.84
2023-03-16T09:22:55.656Z,70.21
2023-03-16T09:25:24.123Z,67.29
2023-03-16T09:27:52.613Z,65.49
2023-03-16T09:30:21.010Z,63.80
2023-03-16T09:32:50.790Z,63.72
2023-03-16T09:35:19.481Z,62.02
2023-03-16T09:38:04.679Z,59.95
2023-03-16T09:40:34.463Z,53.88
2023-03-16T09:43:19.946Z,51.18
2023-03-16T09:45:54.232Z,49.75
2023-03-16T09:48:25.102Z,50.23
2023-03-16T09:50:55.685Z,51.83
2023-03-16T09:53:29.256Z,52.52
2023-03-16T09:56:01.870Z,54.23
2023-03-16T09:58:32.109Z,55.26
2023-03-16T10:01:09.948Z,56.70
2023-03-16T10:03:57.207Z,57.11
2023-03-16T10:06:27.856Z,54.27
2023-03-16T10:09:07.427Z,53.21
2023-03-16T10:11:39.104Z,52.23
2023-03-16T10:14:17.582Z,49.50
2023-03-16T10:16:50.477Z,46.79
2023-03-16T10:19:25.755Z,46.72
2023-03-16T10:21:57.932Z,47.00
2023-03-16T10:24:42.755Z,45.04
2023-03-16T10:27:21.436Z,44.18
2023-03-16T10:29:50.388Z,42.85
2023-03-16T10:32:19.924Z,41.93
2023-03-16T10:34:57.512Z,40.25
2023-03-16T10:37:28.206Z,40.42
2023-03-16T10:39:57.191Z,42.22
2023-03-16T10:42:27.024Z,40.41
2023-03-16T10:45:01.955Z,40.05
2023-03-16T10:47:32.846Z,39.65
2023-03-16T10:50:14.193Z,39.07
2023-03-16T10:52:46.720Z,39.01
2023-03-16T10:55:20.458Z,38.63
2023-03-16T10:57:51.121Z,39.33
2023-03-16T11:00:23.080Z,39.64
2023-03-16T11:02:54.162Z,41.06
2023-03-16T11:05:31.126Z,42.07
2023-03-16T11:08:02.698Z,42.46
2023-03-16T11:10:36.255Z,43.78
2023-03-16T11:13:14.572Z,43.25
2023-03-16T11:15:49.992Z,44.65
2023-03-16T11:18:30.549Z,45.08
2023-03-16T11:21:06.354Z,44.77
2023-03-16T11:23:39.975Z,45.18
2023-03-16T11:26:17.461Z,45.88
2023-03-16T11:28:50.390Z,46.42
2023-03-16T11:31:24.884Z,45.60
2023-03-16T11:33:55.358Z,45.90
2023-03-16T11:36:39.804Z,45.95
2023-03-16T11:39:15.230Z,43.53
2023-03-16T11:41:56.459Z,41.84
2023-03-16T11:44:33.740Z,40.73
2023-03-16T11:47:09.048Z,41.16
2023-03-16T11:49:50.429Z,41.53
2023-03-16T11:52:34.281Z,41.69
2023-03-16T11:55:17.814Z,41.33
2023-03-16T11:57:58.569Z,40.44
2023-03-16T12:00:36.680Z,41.85
2023-03-16T12:03:25.386Z,41.83
2023-03-16T12:06:05.700Z,42.23
2023-03-16T12:09:13.381Z,42.91
2023-03-16T12:11:51.429Z,44.01
2023-03-16T12:14:25.270Z,45.17
2023-03-16T12:17:00.996Z,43.31
2023-03-16T12:19:41.132Z,42.13
2023-03-16T12:22:18.567Z,41.44
2023-03-16T12:24:49.041Z,43.12
2023-03-16T12:27:22.556Z,41.06
2023-03-16T12:30:03.516Z,41.20
2023-03-16T12:32:42.123Z,41.46
2023-03-16T12:35:25.479Z,41.45
2023-03-16T12:38:07.654Z,39.87
2023-03-16T12:40:46.408Z,38.96
2023-03-16T12:43:32.986Z,38.95
2023-03-16T12:46:08.059Z,40.69
2023-03-16T12:48:41.533Z,40.00
2023-03-16T12:51:10.845Z,38.96
2023-03-16T12:53:45.574Z,39.41
2023-03-16T12:56:17.878Z,38.69
2023-03-16T12:58:49.464Z,38.49
2023-03-16T13:01:21.059Z,39.09
2023-03-16T13:03:51.762Z,39.98
2023-03-16T13:06:24.128Z,38.31
2023-03-16T13:09:09.863Z,37.61
2023-03-16T13:11:50.150Z,37.25
2023-03-16T13:14:35.710Z,38.11
2023-03-16T13:17:06.451Z,36.63
2023-03-16T13:19:37.864Z,35.08
2023-03-16T13:22:21.981Z,35.07
2023-03-16T13:24:55.075Z,35.75
2023-03-16T13:27:28.452Z,36.70
2023-03-16T13:29:59.296Z,36.05
2023-03-16T13:32:32.464Z,36.62
2023-03-16T13:35:03.448Z,37.12
2023-03-16T13:37:32.351Z,36.83
2023-03-16T13:40:04.568Z,36.46
2023-03-16T13:42:34.821Z,35.18
2023-03-16T13:45:15.221Z,35.90
2023-03-16T13:47:45.283Z,37.71
2023-03-16T13:50:15.952Z,37.67
2023-03-16T13:52:51.509Z,37.39
2023-03-16T13:55:32.661Z,37.93
2023-03-16T13:58:03.867Z,37.90
2023-03-16T14:00:35.697Z,37.92
2023-03-16T14:03:16.156Z,38.73
2023-03-16T14:05:50.596Z,38.33
2023-03-16T14:08:21.135Z,39.27
2023-03-16T14:10:50.730Z,39.70
2023-03-16T14:13:36.254Z,39.37
2023-03-16T14:16:12.875Z,38.98
2023-03-16T14:18:43.185Z,38.76
2023-03-16T14:21:17.645Z,37.36
2023-03-16T14:23:48.064Z,37.11
2023-03-16T14:26:18.692Z,38.14
2023-03-16T14:28:59.639Z,38.34
2023-03-16T14:31:36.318Z,39.79
2023-03-16T14:34:08.714Z,41.48
2023-03-16T14:36:39.163Z,43.14
2023-03-16T14:39:14.002Z,42.55
2023-03-16T14:41:42.424Z,43.50
2023-03-16T14:44:21.663Z,44.66
2023-03-16T14:46:50.605Z,44.18
2023-03-16T14:49:23.514Z,43.88
2023-03-16T14:51:54.478Z,44.58
2023-03-16T14:54:23.786Z,44.18
2023-03-16T14:56:54.182Z,44.74
2023-03-16T14:59:24.000Z,44.74
2023-03-16T15:01:54.554Z,45.18
2023-03-16T15:04:28.820Z,44.82
2023-03-16T15:06:58.507Z,44.94
2023-03-16T15:09:35.270Z,45.52
2023-03-16T15:12:21.590Z,46.10
2023-03-16T15:15:09.406Z,46.65
2023-03-16T15:17:38.921Z,46.55
2023-03-16T15:20:08.511Z,46.84
2023-03-16T15:22:40.499Z,46.95
2023-03-16T15:25:36.135Z,47.39
2023-03-16T15:28:12.878Z,47.39
2023-03-16T15:30:43.216Z,48.28
2023-03-16T15:33:12.679Z,48.09
2023-03-16T15:35:42.589Z,48.23
2023-03-16T15:38:15.357Z,48.92
2023-03-16T15:40:45.656Z,48.77
2023-03-16T15:43:16.319Z,49.15
2023-03-16T15:45:47.790Z,49.00
2023-03-16T15:48:17.400Z,49.63
2023-03-16T15:50:52.717Z,49.40
2023-03-16T15:53:30.944Z,49.85
2023-03-16T15:56:03.133Z,50.12
2023-03-16T15:58:33.992Z,50.19
2023-03-16T16:01:05.915Z,50.04
2023-03-16T16:03:34.779Z,50.24
2023-03-16T16:06:03.242Z,50.53
2023-03-16T16:08:31.638Z,50.67
2023-03-16T16:11:00.327Z,50.81
2023-03-16T16:13:43.411Z,51.19
2023-03-16T16:16:17.637Z,49.82
2023-03-16T16:18:47.381Z,50.16
2023-03-16T16:21:18.158Z,51.07
2023-03-16T16:23:47.704Z,50.92
2023-03-16T16:26:26.274Z,50.63
2023-03-16T16:28:58.561Z,51.01
2023-03-16T16:31:31.408Z,51.25
2023-03-16T16:34:00.064Z,50.79
2023-03-16T16:36:32.369Z,51.23
2023-03-16T16:39:00.866Z,51.57
2023-03-16T16:41:30.912Z,50.74
2023-03-16T16:44:05.112Z,51.32
2023-03-16T16:46:40.079Z,51.89
2023-03-16T16:49:15.418Z,52.03
2023-03-16T16:51:43.852Z,52.83
2023-03-16T16:54:16.667Z,52.76
2023-03-16T16:56:46.176Z,53.16
2023-03-16T16:59:18.078Z,54.27
2023-03-16T17:01:50.649Z,53.94
2023-03-16T17:04:23.225Z,54.07
2023-03-16T17:06:55.266Z,54.45
2023-03-16T17:09:24.784Z,55.61
2023-03-16T17:11:56.054Z,55.65
2023-03-16T17:14:27.495Z,55.89
2023-03-16T17:16:59.763Z,56.03
2023-03-16T17:19:29.086Z,56.43
2023-03-16T17:21:58.691Z,56.00
2023-03-16T17:24:27.397Z,55.88
2023-03-16T17:26:58.633Z,55.92
2023-03-16T17:29:29.838Z,56.98
2023-03-16T17:32:00.690Z,57.76
2023-03-16T17:34:31.101Z,58.49
2023-03-16T17:36:59.575Z,57.97
2023-03-16T17:39:29.877Z,58.22
2023-03-16T17:42:00.766Z,59.06
2023-03-16T17:44:33.716Z,58.78
2023-03-16T17:47:03.539Z,58.62
2023-03-16T17:49:32.545Z,58.19
2023-03-16T17:52:01.549Z,57.96
2023-03-16T17:54:29.933Z,58.76
2023-03-16T17:56:58.275Z,59.29
2023-03-16T17:59:27.352Z,59.73
2023-03-16T18:01:55.900Z,59.76
2023-03-16T18:04:27.387Z,59.71
2023-03-16T18:06:56.543Z,60.62
2023-03-16T18:09:24.853Z,60.57
2023-03-16T18:11:53.240Z,60.89
2023-03-16T18:14:26.325Z,61.32
2023-03-16T18:16:55.456Z,60.68
2023-03-16T18:19:27.085Z,61.10
2023-03-16T18:21:55.482Z,61.03
2023-03-16T18:24:26.609Z,61.84
2023-03-16T18:26:55.964Z,61.68
2023-03-16T18:29:24.348Z,60.92
2023-03-16T18:31:56.138Z,61.17
2023-03-16T18:34:32.149Z,60.73
2023-03-16T18:37:06.050Z,60.42
2023-03-16T18:39:34.593Z,60.79
2023-03-16T18:42:03.628Z,60.59
2023-03-16T18:44:32.699Z,60.96
2023-03-16T18:47:04.083Z,60.68
2023-03-16T18:49:36.429Z,60.35
2023-03-16T18:52:05.210Z,59.88
2023-03-16T18:54:36.371Z,60.45
2023-03-16T18:57:15.386Z,60.16
2023-03-16T18:59:43.782Z,59.53
2023-03-16T19:02:28.332Z,59.96
2023-03-16T19:05:01.464Z,60.00
2023-03-16T19:07:33.526Z,58.87
2023-03-16T19:10:04.271Z,58.88
2023-03-16T19:12:32.736Z,58.96
2023-03-16T19:15:01.134Z,59.34
2023-03-16T19:17:29.505Z,58.25
2023-03-16T19:19:59.439Z,57.85
2023-03-16T19:22:28.037Z,57.77
2023-03-16T19:24:56.807Z,57.50
2023-03-16T19:27:27.680Z,57.58
2023-03-16T19:29:56.647Z,57.03
2023-03-16T19:32:25.086Z,57.15
2023-03-16T19:34:53.624Z,57.17
2023-03-16T19:37:23.872Z,56.98
2023-03-16T19:39:52.533Z,56.67
2023-03-16T19:42:23.293Z,56.94
2023-03-16T19:44:52.047Z,56.81
2023-03-16T19:47:27.434Z,56.92
2023-03-16T19:49:56.898Z,56.14
2023-03-16T19:52:28.093Z,56.12
2023-03-16T19:54:56.413Z,56.06
2023-03-16T19:57:25.222Z,56.01
2023-03-16T19:59:57.459Z,55.19
2023-03-16T20:02:27.643Z,55.13
2023-03-16T20:04:57.315Z,54.45
2023-03-16T20:07:27.192Z,54.40
2023-03-16T20:09:55.674Z,54.09
2023-03-16T20:12:27.082Z,54.16
2023-03-16T20:14:57.392Z,54.54
2023-03-16T20:17:28.270Z,54.29
2023-03-16T20:19:57.596Z,54.15
2023-03-16T20:22:29.147Z,53.81
2023-03-16T20:24:57.912Z,53.81
2023-03-16T20:27:28.696Z,53.68
2023-03-16T20:29:57.307Z,53.14
2023-03-16T20:32:32.251Z,53.44
2023-03-16T20:35:00.797Z,52.73
2023-03-16T20:37:32.218Z,52.59
2023-03-16T20:40:01.407Z,52.79
2023-03-16T20:42:31.974Z,52.49
2023-03-16T20:45:01.189Z,52.50
2023-03-16T20:47:29.516Z,52.30
2023-03-16T20:49:58.204Z,52.68
2023-03-16T20:52:30.989Z,51.77
2023-03-16T20:55:00.953Z,51.57
2023-03-16T20:57:30.103Z,51.73
2023-03-16T20:59:59.851Z,51.81
2023-03-16T21:02:31.862Z,51.24
2023-03-16T21:05:01.652Z,51.65
2023-03-16T21:07:31.145Z,51.06
2023-03-16T21:10:00.927Z,51.18
2023-03-16T21:12:32.141Z,51.51
2023-03-16T21:15:02.460Z,51.01
2023-03-16T21:17:33.731Z,51.58
2023-03-16T21:20:02.338Z,51.61
2023-03-16T21:22:32.640Z,51.49
2023-03-16T21:25:02.512Z,51.26
2023-03-16T21:27:32.826Z,50.84
2023-03-16T21:30:07.293Z,51.13
2023-03-16T21:32:35.981Z,50.57
2023-03-16T21:35:05.120Z,51.06
2023-03-16T21:37:34.817Z,50.64
2023-03-16T21:40:15.434Z,50.96
2023-03-16T21:42:43.787Z,50.82
2023-03-16T21:45:12.575Z,50.24
2023-03-16T21:47:41.982Z,50.71
2023-03-16T21:50:17.233Z,50.64
2023-03-16T21:52:46.712Z,50.28
2023-03-16T21:55:30.244Z,50.64
2023-03-16T21:57:59.577Z,50.42
2023-03-16T22:00:30.598Z,49.51
2023-03-16T22:03:01.358Z,49.54
2023-03-16T22:05:33.810Z,50.10
2023-03-16T22:08:08.140Z,49.80
2023-03-16T22:10:39.780Z,49.13
2023-03-16T22:13:08.489Z,49.32
2023-03-16T22:15:37.802Z,48.85
2023-03-16T22:18:09.670Z,49.08
2023-03-16T22:20:38.115Z,48.27
2023-03-16T22:23:06.546Z,48.63
2023-03-16T22:25:34.882Z,49.14
2023-03-16T22:28:12.482Z,48.86
2023-03-16T22:30:41.701Z,48.81
2023-03-16T22:33:17.033Z,48.88
2023-03-16T22:35:46.079Z,49.35
2023-03-16T22:38:16.408Z,48.69
2023-03-16T22:40:44.878Z,48.77
2023-03-16T22:43:18.529Z,48.45
2023-03-16T22:45:48.579Z,48.51
2023-03-16T22:48:20.472Z,48.93
2023-03-16T22:50:50.121Z,48.56
2023-03-16T22:53:22.030Z,47.92
2023-03-16T22:55:52.266Z,47.71
2023-03-16T22:58:30.667Z,47.41
2023-03-16T23:01:01.860Z,47.56
2023-03-16T23:03:30.870Z,47.58
2023-03-16T23:05:59.629Z,48.03
2023-03-16T23:08:28.471Z,48.18
2023-03-16T23:10:57.005Z,47.50
2023-03-16T23:13:27.017Z,47.72
2023-03-16T23:15:56.747Z,47.72
2023-03-16T23:18:26.843Z,47.84
2023-03-16T23:20:55.244Z,47.93
2023-03-16T23:23:23.569Z,48.74
2023-03-16T23:25:51.933Z,48.61
2023-03-16T23:28:24.201Z,48.41
2023-03-16T23:30:54.092Z,48.20
2023-03-16T23:33:23.006Z,48.39
2023-03-16T23:35:51.537Z,48.75
2023-03-16T23:38:20.092Z,48.46
2023-03-16T23:40:49.304Z,48.27
2023-03-16T23:43:17.761Z,48.62
2023-03-16T23:45:47.541Z,48.76
2023-03-16T23:48:20.080Z,48.81
2023-03-16T23:50:50.357Z,48.89
2023-03-16T23:53:20.376Z,49.23
2023-03-16T23:55:49.064Z,49.10
2023-03-16T23:58:17.466Z,49.36
